Pelkie, MI (49958)

2:15 PM EST on January 29, 2015 (GMT -0500)
RAWS PELKIE MI US | Change Station
CLOSE
Current Station
Personal Weather Station
Location: Pelkie, MI
Elevation: 759 ft
Nearby Weather Stations

Elev 759 ft 46.78 °N, 88.66 °W | Updated 1 hour ago

Overcast
Overcast
27 °F
Feels Like 16 °F
N
14
Wind Variable Wind from NW
Gusts 29.0 mph

Today
High -- | Low -- °F
--% Chance of Precip.
Yesterday
High -- | Low -- °F
Precip. -- in
8:22 AM 5:53 PM
Waxing Gibbous, 76% visible
Pressure 30.05 in
Visibility 3.0 miles
Clouds Overcast 1400 ft
Windchill 16 °F
Dew Point 20 °F
Humidity 73%
Rainfall 0.00 in
Snow Depth Not available.
UV 1 out of 12
Pollen .10 out of 12
Air Quality Not available.
Flu Activity Not available.
METAR KCMX 291853Z AUTO 34020G30KT 3SM -SN OVC014 M07/M11 A2999 RMK AO2 PK WND 31032/1813 SNB04E15B44 SLP175 P0000 T10671106

More Conditions Fewer Conditions

Pressure 30.05 in
Visibility 3.0 miles
Clouds Overcast 1400 ft
Windchill 16 °F
Dew Point 20 °F
Humidity 73%
Rainfall 0.00 in
Snow Depth Not available.
UV 1 out of 12
Pollen .10 out of 12
Air Quality Not available.
Flu Activity Not available.
METAR KCMX 291853Z AUTO 34020G30KT 3SM -SN OVC014 M07/M11 A2999 RMK AO2 PK WND 31032/1813 SNB04E15B44 SLP175 P0000 T10671106

More Conditions Fewer Conditions

10-Day Weather Forecast

Almanac

Astronomy

Jan. 29, 2015 Rise Set
Actual Time
Civil Twilight
Nautical Twilight
Astronomical Twilight
Moon
Length of Visible Light
Length of Day
Tomorrow will be .
, % of the Moon is Illuminated

Today's Extremes

State Highs State Lows

Community

WunderPhotos

Upload Photos

1,791,561 photos uploaded!

WunderBlogs® & News

Nearby

Air Quality

  Air Quality AQ Index Pollutant
Not available.

Snow Depth

Station Depth Elevation

Earthquake Activity

City Distance Mag. Time & Date
Minimum magnitude displayed is 2.5.

Coastal Water Temperatures

Place Temperature

Nearby Weather Stations